createdAt,value
2022-08-09T00:02:57.498Z,7.00
2022-08-09T00:08:01.478Z,7.60
2022-08-09T00:13:06.591Z,7.60
2022-08-09T00:18:21.475Z,7.00
2022-08-09T00:23:55.965Z,7.25
2022-08-09T00:28:52.312Z,7.25
2022-08-09T00:33:57.032Z,8.00
2022-08-09T00:39:00.865Z,7.75
2022-08-09T00:44:16.492Z,7.00
2022-08-09T00:49:31.098Z,7.00
2022-08-09T00:54:35.389Z,7.20
2022-08-09T00:59:46.243Z,7.00
2022-08-09T01:04:58.257Z,7.60
2022-08-09T01:10:06.061Z,6.75
2022-08-09T01:15:17.060Z,6.75
2022-08-09T01:20:30.180Z,7.75
2022-08-09T01:25:48.907Z,6.75
2022-08-09T01:30:59.077Z,7.00
2022-08-09T01:36:05.136Z,8.50
2022-08-09T01:41:14.237Z,6.50
2022-08-09T01:46:24.921Z,7.75
2022-08-09T01:51:32.592Z,9.00
2022-08-09T01:56:39.664Z,6.75
2022-08-09T02:01:59.942Z,7.00
2022-08-09T02:07:17.779Z,7.25
2022-08-09T02:12:39.735Z,7.00
2022-08-09T02:18:09.491Z,7.50
2022-08-09T02:23:11.423Z,6.50
2022-08-09T02:28:20.056Z,7.00
2022-08-09T02:33:37.691Z,6.50
2022-08-09T02:38:53.681Z,6.50
2022-08-09T02:44:06.634Z,7.00
2022-08-09T02:49:20.177Z,7.00
2022-08-09T02:54:54.159Z,8.00
2022-08-09T03:00:21.023Z,7.25
2022-08-09T03:05:26.567Z,8.80
2022-08-09T03:10:31.286Z,7.25
2022-08-09T03:16:04.775Z,9.20
2022-08-09T03:21:00.505Z,7.50
2022-08-09T03:26:05.307Z,7.50
2022-08-09T03:31:10.010Z,7.50
2022-08-09T03:36:16.262Z,8.40
2022-08-09T03:41:19.633Z,7.00
2022-08-09T03:46:33.441Z,7.75
2022-08-09T03:51:55.661Z,7.00
2022-08-09T03:57:18.483Z,9.00
2022-08-09T04:02:27.374Z,8.75
2022-08-09T04:07:47.183Z,7.00
2022-08-09T04:12:55.808Z,9.60
2022-08-09T04:18:00.452Z,7.00
2022-08-09T04:23:10.060Z,8.00
2022-08-09T04:28:30.537Z,7.80
2022-08-09T04:33:52.380Z,9.25
2022-08-09T04:38:59.593Z,8.00
2022-08-09T04:44:06.398Z,6.25
2022-08-09T04:49:12.128Z,8.00
2022-08-09T04:54:20.037Z,8.25
2022-08-09T04:59:23.344Z,10.00
2022-08-09T05:04:30.671Z,8.75
2022-08-09T05:09:48.777Z,7.50
2022-08-09T05:14:52.715Z,8.75
2022-08-09T05:19:56.824Z,8.00
2022-08-09T05:25:02.676Z,8.75
2022-08-09T05:30:06.580Z,9.00
2022-08-09T05:35:11.277Z,10.80
2022-08-09T05:40:16.387Z,7.75
2022-08-09T05:45:21.266Z,9.50
2022-08-09T05:50:51.388Z,9.60
2022-08-09T05:55:53.134Z,11.00
2022-08-09T06:00:57.006Z,10.50
2022-08-09T06:06:05.849Z,11.20
2022-08-09T06:11:17.445Z,11.25
2022-08-09T06:16:22.483Z,11.00
2022-08-09T06:21:25.232Z,10.50
2022-08-09T06:26:29.834Z,9.50
2022-08-09T06:31:40.515Z,8.60
2022-08-09T06:36:59.671Z,12.20
2022-08-09T06:42:09.409Z,8.25
2022-08-09T06:47:15.305Z,12.00
2022-08-09T06:52:18.135Z,11.00
2022-08-09T06:57:25.804Z,8.25
2022-08-09T07:02:45.917Z,9.50
2022-08-09T07:08:00.389Z,11.00
2022-08-09T07:13:27.486Z,9.00
2022-08-09T07:18:28.882Z,9.75
2022-08-09T07:23:36.044Z,9.00
2022-08-09T07:29:09.187Z,11.60
2022-08-09T07:34:03.376Z,9.00
2022-08-09T07:39:06.191Z,9.40
2022-08-09T07:44:16.348Z,11.20
2022-08-09T07:49:26.839Z,11.80
2022-08-09T07:54:31.646Z,14.00
2022-08-09T07:59:51.972Z,12.00
2022-08-09T08:04:58.821Z,12.00
2022-08-09T08:10:08.934Z,10.60
2022-08-09T08:15:17.580Z,11.00
2022-08-09T08:20:29.370Z,11.00
2022-08-09T08:25:44.016Z,11.60
2022-08-09T08:30:50.009Z,13.00
2022-08-09T08:35:58.617Z,11.20
2022-08-09T08:41:06.273Z,12.00
2022-08-09T08:46:33.624Z,11.80
2022-08-09T08:52:00.533Z,12.60
2022-08-09T08:57:01.662Z,11.00
2022-08-09T09:02:08.424Z,10.40
2022-08-09T09:07:12.531Z,8.80
2022-08-09T09:12:17.171Z,11.40
2022-08-09T09:17:22.035Z,8.00
2022-08-09T09:22:28.741Z,8.00
2022-08-09T09:28:06.344Z,7.75
2022-08-09T09:33:16.440Z,8.00
2022-08-09T09:38:36.425Z,9.80
2022-08-09T09:43:41.327Z,10.00
2022-08-09T09:48:57.340Z,9.60
2022-08-09T09:54:17.887Z,9.40
2022-08-09T09:59:35.828Z,8.40
2022-08-09T10:04:40.729Z,10.20
2022-08-09T10:09:48.698Z,9.20
2022-08-09T10:14:52.979Z,9.00
2022-08-09T10:19:58.710Z,7.25
2022-08-09T10:25:11.319Z,10.00
2022-08-09T10:35:44.377Z,8.80
2022-08-09T10:40:50.213Z,10.00
2022-08-09T10:45:58.457Z,10.40
2022-08-09T10:51:16.566Z,9.00
2022-08-09T10:56:23.660Z,9.00
2022-08-09T11:03:11.318Z,8.60
2022-08-09T11:07:56.872Z,7.75
2022-08-09T11:13:21.683Z,7.40
2022-08-09T11:18:45.778Z,8.20
2022-08-09T11:24:04.069Z,9.40
2022-08-09T11:29:07.226Z,9.40
2022-08-09T11:34:20.730Z,9.60
2022-08-09T11:39:25.185Z,10.80
2022-08-09T11:44:46.973Z,12.60
2022-08-09T11:50:55.068Z,9.20
2022-08-09T11:55:35.143Z,12.40
2022-08-09T12:00:59.874Z,12.00
2022-08-09T12:06:11.588Z,10.00
2022-08-09T12:11:17.594Z,10.00
2022-08-09T12:16:37.623Z,10.60
2022-08-09T12:21:50.771Z,9.40
2022-08-09T12:29:15.613Z,11.60
2022-08-09T12:32:27.417Z,8.40
2022-08-09T12:37:37.844Z,9.00
2022-08-09T12:42:54.970Z,9.60
2022-08-09T12:47:58.051Z,9.60
2022-08-09T12:53:09.505Z,8.00
2022-08-09T12:58:24.065Z,9.20
2022-08-09T13:03:57.358Z,8.60
2022-08-09T13:09:01.469Z,18.60
2022-08-09T13:14:41.401Z,17.20
2022-08-09T13:20:08.708Z,24.80
2022-08-09T13:25:13.668Z,26.40
2022-08-09T13:30:51.378Z,28.80
2022-08-09T13:36:41.769Z,21.20
2022-08-09T13:41:56.384Z,21.00
2022-08-09T13:47:16.226Z,16.80
2022-08-09T13:52:00.897Z,20.00
2022-08-09T13:57:06.424Z,19.00
2022-08-09T14:02:10.895Z,15.20
2022-08-09T14:07:13.788Z,18.00
2022-08-09T14:12:16.836Z,15.00
2022-08-09T14:17:22.726Z,15.60
2022-08-09T14:22:25.730Z,15.40
2022-08-09T14:27:28.748Z,14.40
2022-08-09T14:32:43.664Z,16.60
2022-08-09T14:38:02.056Z,17.00
2022-08-09T14:43:05.950Z,13.80
2022-08-09T14:48:10.134Z,15.80
2022-08-09T14:53:17.456Z,13.20
2022-08-09T14:58:20.188Z,13.20
2022-08-09T15:03:24.312Z,12.00
2022-08-09T15:08:30.450Z,13.20
2022-08-09T15:13:47.834Z,13.20
2022-08-09T15:18:59.659Z,15.00
2022-08-09T15:24:13.926Z,15.60
2022-08-09T15:30:58.706Z,15.20
2022-08-09T15:34:45.979Z,10.80
2022-08-09T15:39:54.818Z,13.00
2022-08-09T15:44:58.415Z,12.40
2022-08-09T15:50:05.582Z,12.40
2022-08-09T15:55:12.424Z,13.80
2022-08-09T16:00:25.346Z,12.60
2022-08-09T16:05:47.193Z,12.80
2022-08-09T16:10:55.444Z,16.20
2022-08-09T16:16:10.400Z,12.80
2022-08-09T16:21:25.197Z,14.00
2022-08-09T16:26:34.180Z,13.40
2022-08-09T16:32:17.754Z,10.80
2022-08-09T16:37:03.190Z,10.00
2022-08-09T16:42:10.619Z,9.60
2022-08-09T16:48:39.807Z,10.20
2022-08-09T16:52:43.055Z,12.80
2022-08-09T16:58:09.887Z,11.00
2022-08-09T17:03:09.062Z,11.20
2022-08-09T17:08:46.753Z,10.00
2022-08-09T17:14:01.048Z,12.40
2022-08-09T17:19:05.394Z,10.00
2022-08-09T17:24:28.215Z,10.40
2022-08-09T17:29:38.097Z,10.00
2022-08-09T17:35:01.541Z,8.80
2022-08-09T17:40:17.038Z,8.00
2022-08-09T17:45:27.219Z,9.40
2022-08-09T17:50:40.628Z,8.60
2022-08-09T17:55:57.614Z,8.40
2022-08-09T18:01:04.057Z,10.60
2022-08-09T18:06:07.579Z,9.00
2022-08-09T18:11:46.883Z,9.20
2022-08-09T18:16:56.343Z,9.80
2022-08-09T18:21:59.159Z,8.20
2022-08-09T18:27:06.725Z,8.20
2022-08-09T18:32:11.611Z,7.40
2022-08-09T18:37:47.921Z,9.40
2022-08-09T18:42:40.086Z,6.20
2022-08-09T18:47:46.753Z,8.80
2022-08-09T18:52:50.761Z,10.00
2022-08-09T18:57:56.487Z,9.20
2022-08-09T19:02:59.374Z,10.80
2022-08-09T19:08:09.723Z,10.40
2022-08-09T19:13:20.852Z,12.20
2022-08-09T19:18:32.915Z,11.20
2022-08-09T19:24:37.396Z,10.40
2022-08-09T19:29:15.699Z,8.80
2022-08-09T19:34:24.748Z,10.20
2022-08-09T19:40:02.518Z,10.80
2022-08-09T19:44:53.725Z,10.00
2022-08-09T19:50:09.609Z,10.60
2022-08-09T19:55:19.725Z,9.80
2022-08-09T20:00:35.290Z,12.20
2022-08-09T20:05:45.983Z,10.40
2022-08-09T20:10:51.593Z,10.00
2022-08-09T20:16:34.004Z,9.20
2022-08-09T20:21:22.097Z,12.20
2022-08-09T20:26:43.301Z,9.60
2022-08-09T20:32:28.524Z,10.20
2022-08-09T20:37:11.133Z,12.40
2022-08-09T20:42:14.172Z,13.60
2022-08-09T20:47:47.817Z,12.00
2022-08-09T20:52:44.824Z,10.60
2022-08-09T20:58:08.128Z,12.20
2022-08-09T21:03:12.494Z,12.80
2022-08-09T21:08:22.356Z,13.00
2022-08-09T21:13:58.079Z,10.20
2022-08-09T21:20:18.925Z,11.00
2022-08-09T21:24:28.587Z,12.00
2022-08-09T21:29:48.978Z,12.20
2022-08-09T21:34:54.998Z,10.00
2022-08-09T21:39:57.786Z,11.20
2022-08-09T21:45:01.299Z,8.80
2022-08-09T21:50:06.458Z,12.20
2022-08-09T21:55:10.252Z,10.20
2022-08-09T22:00:25.540Z,10.80
2022-08-09T22:05:36.021Z,9.00
2022-08-09T22:11:00.494Z,9.60
2022-08-09T22:16:03.913Z,12.40
2022-08-09T22:21:09.891Z,9.20
2022-08-09T22:26:35.323Z,9.60
2022-08-09T22:31:50.248Z,8.40
2022-08-09T22:37:01.552Z,10.00
2022-08-09T22:42:16.103Z,9.60
2022-08-09T22:48:10.774Z,9.00
2022-08-09T22:52:49.127Z,9.80
2022-08-09T22:57:59.571Z,8.00
2022-08-09T23:03:03.209Z,9.60
2022-08-09T23:08:34.954Z,9.40
2022-08-09T23:13:38.422Z,7.40
2022-08-09T23:18:42.096Z,9.00
2022-08-09T23:23:58.915Z,9.00
2022-08-09T23:29:13.495Z,7.40
2022-08-09T23:34:16.230Z,8.40
2022-08-09T23:39:20.483Z,8.60
2022-08-09T23:44:23.237Z,9.00
2022-08-09T23:49:26.831Z,9.40
2022-08-09T23:54:30.882Z,8.00
2022-08-09T23:59:47.566Z,7.75
